Time;durP1;ratioP1;P1;durP2;ratioP2;P2;SDS_P1;SDS_P2;PMS_P1;PMS_P2;Temp;Humidity;BMP_temperature;BMP_pressure;BME280_temperature;BME280_humidity;BME280_pressure;Samples;Min_cycle;Max_cycle;Signal;HPM_P1;HPM_P2
2021/04/08 00:01:11;;;;;;;2.27;1.50;;;22.50;28.10;;;;;;5008590;28;20213;-59
2021/04/08 00:03:37;;;;;;;1.80;1.47;;;22.40;28.00;;;;;;5008734;28;20213;-58
2021/04/08 00:06:03;;;;;;;1.73;1.30;;;22.40;28.10;;;;;;5010958;28;20202;-60
2021/04/08 00:08:29;;;;;;;1.97;1.70;;;22.40;28.00;;;;;;5009978;28;20713;-59
2021/04/08 00:10:55;;;;;;;1.87;1.70;;;22.40;28.00;;;;;;5009779;28;20201;-60
2021/04/08 00:13:21;;;;;;;2.00;1.30;;;22.40;28.00;;;;;;5010549;28;20216;-60
2021/04/08 00:15:47;;;;;;;2.27;1.50;;;22.40;28.00;;;;;;5010414;28;20208;-59
2021/04/08 00:18:13;;;;;;;1.90;1.70;;;22.50;28.00;;;;;;5009270;28;20583;-60
2021/04/08 00:20:39;;;;;;;2.20;1.30;;;22.50;28.00;;;;;;5009469;28;20300;-60
2021/04/08 00:23:05;;;;;;;2.90;1.47;;;22.50;28.10;;;;;;5009803;28;20214;-60
2021/04/08 00:25:31;;;;;;;2.10;1.23;;;22.50;28.00;;;;;;5011085;28;20198;-60
2021/04/08 00:27:56;;;;;;;1.50;1.40;;;22.50;28.10;;;;;;5009948;28;20614;-59
2021/04/08 00:30:22;;;;;;;1.33;1.23;;;22.50;28.10;;;;;;5008825;28;20216;-60
2021/04/08 00:32:48;;;;;;;1.60;1.30;;;22.40;28.00;;;;;;5010040;28;20206;-60
2021/04/08 00:35:14;;;;;;;1.70;1.50;;;22.50;28.00;;;;;;5009729;28;20223;-59
2021/04/08 00:37:40;;;;;;;1.83;1.30;;;22.50;28.00;;;;;;5010323;28;20615;-59
2021/04/08 00:40:06;;;;;;;1.40;1.30;;;22.50;28.00;;;;;;5008562;28;20217;-60
2021/04/08 00:42:32;;;;;;;3.37;1.27;;;22.50;28.00;;;;;;5009628;28;20263;-59
2021/04/08 00:44:58;;;;;;;1.43;1.33;;;22.50;28.00;;;;;;5010195;28;20213;-60
2021/04/08 00:47:24;;;;;;;1.30;1.20;;;22.50;28.00;;;;;;5010129;28;20197;-59
2021/04/08 00:49:50;;;;;;;1.77;1.50;;;22.40;27.90;;;;;;5009201;28;20265;-60
2021/04/08 00:52:16;;;;;;;1.73;1.40;;;22.40;28.00;;;;;;5007439;28;20859;-60
2021/04/08 00:54:42;;;;;;;1.60;1.40;;;22.40;27.90;;;;;;4992851;28;20291;-60
2021/04/08 00:57:08;;;;;;;1.33;1.20;;;22.40;27.90;;;;;;5008598;28;20214;-60
2021/04/08 00:59:34;;;;;;;1.60;1.10;;;22.40;27.80;;;;;;5009311;28;20627;-59
2021/04/08 01:02:00;;;;;;;1.77;1.40;;;22.40;28.00;;;;;;5008985;28;20233;-59
2021/04/08 01:04:26;;;;;;;1.60;1.50;;;22.40;28.00;;;;;;5009428;28;20212;-60
2021/04/08 01:06:52;;;;;;;1.37;1.23;;;22.40;28.00;;;;;;5010886;28;20213;-59
2021/04/08 01:09:18;;;;;;;1.97;1.57;;;22.40;28.00;;;;;;5009240;28;21028;-60
2021/04/08 01:11:44;;;;;;;2.37;1.23;;;22.40;28.00;;;;;;5008129;28;20202;-60
2021/04/08 01:14:10;;;;;;;2.43;1.37;;;22.40;28.00;;;;;;5008312;28;20600;-59
2021/04/08 01:16:36;;;;;;;1.50;1.40;;;22.40;27.90;;;;;;5009648;28;20235;-60
2021/04/08 01:19:02;;;;;;;1.63;1.43;;;22.40;27.90;;;;;;5010136;28;20244;-60
2021/04/08 01:21:28;;;;;;;1.30;1.17;;;22.40;27.80;;;;;;5008181;28;20202;-59
2021/04/08 01:23:54;;;;;;;1.40;1.30;;;22.40;27.90;;;;;;5009840;28;20202;-59
2021/04/08 01:26:20;;;;;;;1.87;1.20;;;22.40;27.70;;;;;;5009189;28;20206;-60
2021/04/08 01:28:46;;;;;;;2.77;1.43;;;22.40;27.80;;;;;;5008364;28;20226;-60
2021/04/08 01:31:12;;;;;;;2.47;2.10;;;22.40;27.70;;;;;;5006919;28;20211;-60
2021/04/08 01:33:38;;;;;;;1.80;1.23;;;22.50;27.80;;;;;;5000829;28;20721;-60
2021/04/08 01:36:04;;;;;;;1.40;1.30;;;22.40;27.90;;;;;;5012621;28;20279;-60
2021/04/08 01:38:30;;;;;;;1.80;1.40;;;22.40;27.90;;;;;;5013877;28;20241;-59
2021/04/08 01:40:56;;;;;;;1.60;1.50;;;22.50;27.90;;;;;;5011660;28;20208;-60
2021/04/08 01:43:22;;;;;;;2.33;1.50;;;22.50;27.90;;;;;;5013429;28;20205;-61
2021/04/08 01:45:48;;;;;;;2.07;1.40;;;22.40;28.10;;;;;;5012402;28;20362;-61
2021/04/08 01:48:14;;;;;;;1.40;1.30;;;22.40;28.20;;;;;;5012161;28;20221;-61
2021/04/08 01:50:40;;;;;;;1.57;1.47;;;22.40;28.00;;;;;;5012810;28;20238;-61
2021/04/08 01:53:05;;;;;;;1.53;1.10;;;22.40;28.10;;;;;;5011045;28;20241;-61
2021/04/08 01:55:32;;;;;;;1.93;1.37;;;22.40;28.00;;;;;;5013463;28;20668;-61
2021/04/08 01:57:57;;;;;;;1.90;1.30;;;22.40;28.00;;;;;;5012025;28;20231;-61
2021/04/08 02:00:23;;;;;;;1.97;1.20;;;22.40;28.10;;;;;;5012438;28;20301;-61
2021/04/08 02:02:50;;;;;;;1.63;1.30;;;22.40;28.00;;;;;;5012089;28;20280;-61
2021/04/08 02:05:16;;;;;;;1.60;1.40;;;22.40;28.30;;;;;;5013547;28;20368;-61
2021/04/08 02:07:41;;;;;;;1.30;1.10;;;22.40;28.30;;;;;;5011782;28;20245;-61
2021/04/08 02:10:07;;;;;;;1.37;1.27;;;22.40;28.30;;;;;;5012266;28;20226;-61
2021/04/08 02:12:33;;;;;;;1.67;1.37;;;22.40;28.20;;;;;;5011272;28;20204;-60
2021/04/08 02:14:59;;;;;;;1.10;1.00;;;22.40;28.00;;;;;;5012286;28;20255;-60
2021/04/08 02:17:25;;;;;;;2.10;1.10;;;22.40;27.90;;;;;;5010807;28;20206;-61
2021/04/08 02:19:51;;;;;;;1.30;1.20;;;22.40;27.90;;;;;;5010692;28;20217;-61
2021/04/08 02:22:17;;;;;;;1.53;1.23;;;22.40;27.90;;;;;;5012666;28;20697;-61
2021/04/08 02:24:43;;;;;;;1.70;1.60;;;22.40;27.90;;;;;;5011468;28;20198;-61
2021/04/08 02:27:09;;;;;;;2.17;1.30;;;22.40;28.00;;;;;;5011776;28;20210;-61
2021/04/08 02:29:35;;;;;;;2.17;1.20;;;22.40;28.00;;;;;;5010793;28;20197;-61
2021/04/08 02:32:01;;;;;;;2.33;1.20;;;22.40;28.10;;;;;;5011697;28;20206;-60
2021/04/08 02:34:27;;;;;;;1.20;1.10;;;22.40;28.00;;;;;;5008102;28;20867;-61
2021/04/08 02:36:53;;;;;;;1.40;1.27;;;22.40;28.10;;;;;;5011211;28;20214;-61
2021/04/08 02:39:19;;;;;;;1.87;1.37;;;22.40;28.00;;;;;;5011202;28;20620;-60
2021/04/08 02:41:45;;;;;;;2.00;1.10;;;22.40;28.00;;;;;;5008765;28;20198;-61
2021/04/08 02:44:11;;;;;;;2.57;1.40;;;22.40;28.10;;;;;;5005954;28;20203;-60
2021/04/08 02:46:37;;;;;;;1.53;1.20;;;22.40;28.10;;;;;;5012283;28;20218;-61
2021/04/08 02:49:03;;;;;;;1.77;1.30;;;22.40;28.10;;;;;;5010451;28;20229;-61
2021/04/08 02:51:29;;;;;;;1.30;1.20;;;22.40;28.20;;;;;;5010486;28;20221;-61
2021/04/08 02:53:55;;;;;;;3.90;1.37;;;22.40;28.00;;;;;;5008439;28;20237;-61
2021/04/08 02:56:21;;;;;;;1.73;1.30;;;22.40;28.00;;;;;;5004756;28;20568;-61
2021/04/08 02:58:47;;;;;;;1.67;1.30;;;22.40;27.90;;;;;;5011837;28;20213;-61
2021/04/08 03:01:13;;;;;;;1.23;1.07;;;22.40;27.90;;;;;;5009745;28;20206;-60
2021/04/08 03:03:39;;;;;;;1.30;1.20;;;22.40;27.80;;;;;;5011473;28;20220;-60
2021/04/08 03:06:05;;;;;;;1.23;1.13;;;22.40;27.70;;;;;;5012348;28;20209;-61
2021/04/08 03:08:31;;;;;;;1.80;1.23;;;22.40;27.80;;;;;;5009126;28;20756;-61
2021/04/08 03:10:57;;;;;;;1.50;1.20;;;22.40;28.20;;;;;;5011169;28;20212;-60
2021/04/08 03:13:23;;;;;;;1.70;1.23;;;22.40;27.90;;;;;;5009660;28;20258;-60
2021/04/08 03:15:48;;;;;;;3.33;1.37;;;22.40;28.30;;;;;;5011808;28;20725;-61
2021/04/08 03:18:14;;;;;;;1.30;1.20;;;22.40;28.30;;;;;;5009110;28;20218;-60
2021/04/08 03:20:40;;;;;;;1.20;1.10;;;22.40;28.30;;;;;;5011868;28;20205;-60
2021/04/08 03:23:06;;;;;;;1.87;1.30;;;22.30;28.20;;;;;;5010510;28;20302;-61
2021/04/08 03:25:32;;;;;;;2.00;1.30;;;22.30;28.10;;;;;;5011933;28;20568;-60
2021/04/08 03:27:58;;;;;;;1.60;1.20;;;22.30;28.00;;;;;;5009366;28;20226;-61
2021/04/08 03:30:24;;;;;;;2.30;1.23;;;22.30;28.00;;;;;;4998415;28;20205;-61
2021/04/08 03:32:50;;;;;;;1.40;1.30;;;22.30;28.10;;;;;;5000275;28;20215;-61
2021/04/08 03:35:16;;;;;;;1.43;1.10;;;22.30;28.20;;;;;;5008817;28;20586;-60
2021/04/08 03:37:42;;;;;;;1.33;1.23;;;22.40;28.00;;;;;;5009506;28;20226;-61
2021/04/08 03:40:08;;;;;;;2.10;1.27;;;22.30;28.00;;;;;;5010061;28;20233;-61
2021/04/08 03:42:34;;;;;;;1.63;1.20;;;22.40;28.20;;;;;;5010268;28;20204;-61
2021/04/08 03:45:00;;;;;;;1.60;1.27;;;22.40;28.10;;;;;;5010058;28;20213;-61
2021/04/08 03:47:26;;;;;;;2.93;1.43;;;22.30;28.20;;;;;;5008699;28;20632;-60
2021/04/08 03:49:52;;;;;;;1.27;1.13;;;22.40;28.20;;;;;;5010322;28;20211;-60
2021/04/08 03:52:18;;;;;;;3.07;1.10;;;22.40;28.10;;;;;;5010063;28;20221;-61
2021/04/08 03:54:44;;;;;;;1.30;1.20;;;22.40;28.20;;;;;;5005721;28;20234;-60
2021/04/08 03:57:10;;;;;;;2.70;1.10;;;22.40;28.20;;;;;;5000962;28;20230;-60
2021/04/08 03:59:36;;;;;;;1.50;1.40;;;22.40;28.30;;;;;;5010185;28;20252;-59
2021/04/08 04:02:01;;;;;;;1.43;1.27;;;22.40;28.40;;;;;;5010243;28;20559;-61
2021/04/08 04:04:27;;;;;;;1.40;1.20;;;22.40;28.30;;;;;;5009630;28;20271;-60
2021/04/08 04:06:53;;;;;;;1.40;1.30;;;22.40;28.50;;;;;;5006404;28;20241;-60
2021/04/08 04:09:19;;;;;;;1.97;1.10;;;22.40;28.20;;;;;;5009893;28;20201;-60
2021/04/08 04:11:45;;;;;;;1.87;1.10;;;22.40;28.20;;;;;;5010348;28;20684;-59
2021/04/08 04:14:11;;;;;;;1.40;1.30;;;22.40;28.30;;;;;;5010042;28;20234;-60
2021/04/08 04:16:38;;;;;;;1.20;1.10;;;22.40;28.30;;;;;;5009271;28;20232;-61
2021/04/08 04:19:04;;;;;;;1.50;1.30;;;22.40;28.50;;;;;;5009909;28;20210;-59
2021/04/08 04:21:29;;;;;;;1.13;1.03;;;22.40;28.40;;;;;;5009597;28;20211;-60
2021/04/08 04:23:56;;;;;;;1.40;1.30;;;22.40;28.20;;;;;;5009536;28;20265;-60
2021/04/08 04:26:22;;;;;;;1.93;1.13;;;22.40;28.40;;;;;;5010924;28;20225;-60
2021/04/08 04:28:48;;;;;;;1.80;1.30;;;22.40;28.50;;;;;;5009058;28;20839;-61
2021/04/08 04:31:14;;;;;;;2.60;1.20;;;22.40;28.40;;;;;;5009967;28;20216;-60
2021/04/08 04:33:40;;;;;;;1.33;1.10;;;22.40;28.40;;;;;;5009937;28;20228;-60
2021/04/08 04:36:05;;;;;;;2.03;1.30;;;22.40;28.40;;;;;;5008457;28;20222;-60
2021/04/08 04:38:31;;;;;;;1.37;1.23;;;22.40;28.30;;;;;;5009184;28;20712;-60
2021/04/08 04:40:57;;;;;;;1.27;1.10;;;22.40;28.30;;;;;;5001413;28;20202;-61
2021/04/08 04:43:23;;;;;;;1.67;1.30;;;22.40;28.80;;;;;;5010520;28;20225;-60
2021/04/08 04:45:49;;;;;;;1.23;1.07;;;22.40;28.30;;;;;;5008728;28;20670;-61
2021/04/08 04:48:15;;;;;;;1.50;1.20;;;22.40;28.30;;;;;;5009754;28;20218;-61
2021/04/08 04:50:41;;;;;;;2.20;1.20;;;22.40;28.20;;;;;;5009317;28;20310;-60
2021/04/08 04:53:07;;;;;;;2.00;1.30;;;22.40;28.30;;;;;;5008237;28;20205;-61
2021/04/08 04:55:33;;;;;;;1.30;1.07;;;22.40;28.40;;;;;;5008867;28;20563;-61
2021/04/08 04:57:59;;;;;;;1.57;1.10;;;22.40;28.40;;;;;;5008432;28;20225;-61
2021/04/08 05:00:25;;;;;;;1.30;1.10;;;22.40;28.30;;;;;;5002341;28;20234;-61
2021/04/08 05:02:51;;;;;;;1.87;1.20;;;22.40;28.60;;;;;;5004525;28;20203;-60
2021/04/08 05:05:17;;;;;;;1.50;1.30;;;22.40;28.60;;;;;;5001477;28;20292;-61
2021/04/08 05:07:43;;;;;;;1.20;1.10;;;22.40;28.70;;;;;;5014286;28;20225;-61
2021/04/08 05:10:09;;;;;;;1.33;1.17;;;22.40;28.70;;;;;;5011948;28;20602;-61
2021/04/08 05:12:35;;;;;;;3.07;1.30;;;22.40;28.70;;;;;;5012511;28;20251;-61
2021/04/08 05:15:01;;;;;;;1.60;1.20;;;22.40;29.20;;;;;;5012386;28;20230;-61
2021/04/08 05:17:27;;;;;;;2.67;1.30;;;22.40;28.90;;;;;;5013208;28;20636;-61
2021/04/08 05:19:54;;;;;;;2.03;1.10;;;22.40;28.80;;;;;;5012481;28;20204;-61
2021/04/08 05:22:20;;;;;;;1.30;1.20;;;22.40;28.70;;;;;;5011623;28;20352;-61
2021/04/08 05:24:46;;;;;;;3.50;1.20;;;22.40;28.60;;;;;;5013100;28;20211;-61
2021/04/08 05:27:11;;;;;;;1.50;1.20;;;22.40;28.60;;;;;;5012812;28;20222;-61
2021/04/08 05:29:37;;;;;;;1.20;1.10;;;22.40;28.50;;;;;;5012481;28;20659;-61
2021/04/08 05:32:03;;;;;;;1.40;1.20;;;22.40;28.60;;;;;;5010836;28;20201;-61
2021/04/08 05:34:29;;;;;;;3.73;1.27;;;22.40;28.60;;;;;;5012215;28;20253;-59
2021/04/08 05:36:55;;;;;;;1.30;1.10;;;22.40;28.50;;;;;;5012037;28;20229;-59
2021/04/08 05:39:21;;;;;;;1.53;1.43;;;22.40;28.40;;;;;;5012731;28;20701;-59
2021/04/08 05:41:47;;;;;;;1.47;1.10;;;22.40;28.30;;;;;;5011569;28;20215;-59
2021/04/08 05:44:13;;;;;;;1.90;1.30;;;22.40;28.30;;;;;;5013065;28;20253;-59
2021/04/08 05:46:39;;;;;;;2.20;1.30;;;22.40;28.30;;;;;;5012669;28;20262;-61
2021/04/08 05:49:05;;;;;;;1.40;1.20;;;22.40;28.30;;;;;;5012865;28;20209;-59
2021/04/08 05:51:31;;;;;;;1.70;1.10;;;22.40;28.30;;;;;;5012806;28;20206;-60
2021/04/08 05:53:57;;;;;;;2.17;1.30;;;22.40;28.30;;;;;;5012344;28;20224;-61
2021/04/08 05:56:23;;;;;;;1.90;1.20;;;22.40;28.20;;;;;;5012899;28;20237;-60
2021/04/08 05:58:49;;;;;;;1.30;1.00;;;22.40;28.20;;;;;;5011586;28;20220;-60
2021/04/08 06:01:15;;;;;;;1.97;1.30;;;22.40;28.20;;;;;;5010884;28;20632;-61
2021/04/08 06:03:41;;;;;;;1.20;1.10;;;22.40;28.20;;;;;;5012126;28;20214;-61
2021/04/08 06:06:07;;;;;;;2.77;1.30;;;22.40;28.30;;;;;;5012101;28;20222;-61
2021/04/08 06:08:33;;;;;;;4.37;1.30;;;22.40;28.20;;;;;;5011386;28;20225;-60
2021/04/08 06:10:59;;;;;;;2.90;1.20;;;22.40;28.30;;;;;;5011867;28;20213;-59
2021/04/08 06:13:25;;;;;;;1.80;1.20;;;22.40;28.30;;;;;;5010320;28;20214;-59
2021/04/08 06:15:51;;;;;;;1.00;1.00;;;22.40;28.40;;;;;;5010794;28;20595;-60
2021/04/08 06:18:17;;;;;;;1.33;1.23;;;22.40;28.50;;;;;;5007589;28;20222;-60
2021/04/08 06:20:43;;;;;;;1.63;1.07;;;22.40;28.60;;;;;;5012020;28;20229;-61
2021/04/08 06:23:08;;;;;;;1.10;1.00;;;22.40;28.50;;;;;;5012417;28;20649;-60
2021/04/08 06:25:34;;;;;;;2.47;1.10;;;22.40;28.50;;;;;;5011345;28;20226;-60
2021/04/08 06:28:00;;;;;;;1.27;1.00;;;22.40;28.50;;;;;;5012490;28;20209;-60
2021/04/08 06:30:26;;;;;;;2.27;1.17;;;22.40;28.50;;;;;;5011295;28;20206;-61
2021/04/08 06:32:53;;;;;;;3.33;1.50;;;22.50;28.90;;;;;;5000497;28;20202;-59
2021/04/08 06:35:18;;;;;;;1.30;1.10;;;22.50;28.70;;;;;;4993660;28;20323;-61
2021/04/08 06:37:44;;;;;;;2.83;1.30;;;22.50;28.80;;;;;;5009143;28;20650;-60
2021/04/08 06:40:10;;;;;;;2.90;1.30;;;22.50;28.60;;;;;;5009256;28;20205;-61
2021/04/08 06:42:36;;;;;;;3.13;1.50;;;22.60;28.60;;;;;;5010067;28;20210;-55
2021/04/08 06:45:02;;;;;;;5.07;1.63;;;22.60;28.70;;;;;;5007391;28;20928;-59
2021/04/08 06:47:28;;;;;;;1.90;1.40;;;22.60;28.80;;;;;;5004126;28;20300;-63
2021/04/08 06:49:54;;;;;;;3.57;1.70;;;22.60;28.70;;;;;;5006661;28;20655;-63
2021/04/08 06:52:20;;;;;;;4.77;1.40;;;22.70;29.60;;;;;;5008700;28;20206;-59
2021/04/08 06:54:46;;;;;;;5.63;2.20;;;22.80;29.80;;;;;;5009781;28;20235;-59
2021/04/08 06:57:13;;;;;;;5.40;1.90;;;22.80;29.50;;;;;;5009856;28;20263;-62
2021/04/08 06:59:39;;;;;;;6.83;1.80;;;22.80;30.00;;;;;;5004251;28;20230;-61
2021/04/08 07:02:05;;;;;;;5.13;1.73;;;22.70;30.70;;;;;;5010922;28;20220;-58
2021/04/08 07:04:31;;;;;;;5.73;1.80;;;22.70;30.70;;;;;;5010610;28;20209;-59
2021/04/08 07:06:57;;;;;;;6.60;2.37;;;22.70;31.60;;;;;;5009948;28;20228;-59
2021/04/08 07:09:23;;;;;;;5.43;1.87;;;22.70;31.90;;;;;;5003522;28;20733;-59
2021/04/08 07:11:49;;;;;;;5.83;2.43;;;22.70;32.00;;;;;;5000028;28;20643;-59
2021/04/08 07:14:15;;;;;;;5.43;3.23;;;22.40;27.50;;;;;;5011762;28;20221;-59
2021/04/08 07:16:41;;;;;;;3.33;2.40;;;16.60;22.10;;;;;;5008938;28;20227;-59
2021/04/08 07:19:07;;;;;;;3.40;2.00;;;17.30;29.90;;;;;;5012336;28;20693;-59
2021/04/08 07:21:33;;;;;;;5.43;2.10;;;19.30;30.00;;;;;;5009951;28;20835;-58
2021/04/08 07:23:59;;;;;;;3.67;1.80;;;20.50;29.90;;;;;;5011763;28;20199;-59
2021/04/08 07:26:25;;;;;;;3.60;1.87;;;21.20;29.20;;;;;;5010433;28;20587;-59
2021/04/08 07:28:51;;;;;;;6.63;1.80;;;21.60;28.80;;;;;;5011061;28;20214;-58
2021/04/08 07:31:17;;;;;;;2.67;1.53;;;21.80;28.80;;;;;;5009120;28;20210;-59
2021/04/08 07:33:43;;;;;;;2.70;1.60;;;22.00;28.60;;;;;;5010773;28;20224;-59
2021/04/08 07:36:09;;;;;;;2.83;1.50;;;22.10;28.70;;;;;;5010759;28;20536;-59
2021/04/08 07:38:35;;;;;;;3.77;1.90;;;22.20;28.80;;;;;;5010811;28;20214;-59
2021/04/08 07:41:02;;;;;;;5.13;1.70;;;22.30;28.90;;;;;;5006671;28;20204;-59
2021/04/08 07:43:28;;;;;;;3.93;1.67;;;22.40;30.00;;;;;;5002725;28;20202;-60
2021/04/08 07:45:54;;;;;;;2.53;1.40;;;22.40;29.50;;;;;;4996699;28;20233;-61
2021/04/08 07:48:20;;;;;;;2.67;1.70;;;22.50;30.20;;;;;;5001733;28;20215;-59
2021/04/08 07:50:46;;;;;;;4.40;1.80;;;22.60;29.60;;;;;;5009148;28;20211;-59
2021/04/08 07:53:12;;;;;;;2.70;1.53;;;22.60;29.60;;;;;;5008422;28;20577;-61
2021/04/08 07:55:38;;;;;;;1.80;1.50;;;22.60;29.70;;;;;;5000974;28;20249;-59
2021/04/08 07:58:05;;;;;;;3.47;1.53;;;22.60;30.50;;;;;;5004578;28;20209;-59
2021/04/08 08:00:31;;;;;;;2.73;1.70;;;22.60;30.60;;;;;;5001068;28;20734;-59
2021/04/08 08:02:57;;;;;;;5.90;1.87;;;22.60;30.20;;;;;;5004681;28;20207;-60
2021/04/08 08:05:24;;;;;;;6.13;1.93;;;22.60;29.60;;;;;;4994140;28;20229;-59
2021/04/08 08:07:50;;;;;;;1.97;1.30;;;22.50;30.70;;;;;;4994391;28;20239;-60
2021/04/08 08:10:16;;;;;;;4.77;1.97;;;22.50;30.10;;;;;;5006957;28;20216;-57
2021/04/08 08:12:42;;;;;;;4.80;1.73;;;22.50;31.30;;;;;;5008372;28;20203;-59
2021/04/08 08:15:08;;;;;;;3.03;1.60;;;22.60;30.40;;;;;;4998415;28;20305;-62
2021/04/08 08:17:34;;;;;;;3.20;1.60;;;22.60;30.40;;;;;;4998142;28;20218;-59
2021/04/08 08:20:00;;;;;;;2.07;1.83;;;22.60;30.00;;;;;;5004049;28;20426;-60
2021/04/08 08:22:26;;;;;;;2.77;1.80;;;22.60;30.00;;;;;;5002666;28;20312;-61
2021/04/08 08:24:52;;;;;;;3.57;1.50;;;22.60;29.60;;;;;;5009458;28;20327;-60
2021/04/08 08:27:18;;;;;;;2.00;1.70;;;22.60;30.00;;;;;;5001910;28;20215;-61
2021/04/08 08:29:44;;;;;;;3.03;1.47;;;22.60;30.40;;;;;;4975267;28;20724;-63
2021/04/08 08:32:10;;;;;;;2.67;1.80;;;22.60;30.60;;;;;;4999064;28;20211;-61
2021/04/08 08:34:36;;;;;;;4.07;2.00;;;22.60;30.00;;;;;;5002869;28;20303;-58
2021/04/08 08:37:02;;;;;;;2.10;1.70;;;22.60;30.90;;;;;;5001354;28;20214;-60
2021/04/08 08:39:28;;;;;;;2.07;1.47;;;22.60;31.30;;;;;;4999420;28;20210;-61
2021/04/08 08:41:54;;;;;;;3.40;1.97;;;22.70;31.00;;;;;;4999441;28;20637;-59
2021/04/08 08:44:20;;;;;;;3.80;1.60;;;22.70;31.10;;;;;;5007999;28;20219;-58
2021/04/08 08:46:46;;;;;;;4.43;1.83;;;22.70;31.00;;;;;;5003181;28;20198;-47
2021/04/08 08:49:12;;;;;;;2.67;1.80;;;22.70;31.10;;;;;;4992727;28;20202;-56
2021/04/08 08:51:38;;;;;;;2.83;1.70;;;22.70;31.50;;;;;;5005808;28;20735;-57
2021/04/08 08:54:04;;;;;;;2.37;1.40;;;22.70;31.50;;;;;;5004905;28;20234;-57
2021/04/08 08:56:30;;;;;;;2.70;1.60;;;22.70;31.10;;;;;;5008074;28;20576;-52
2021/04/08 08:58:56;;;;;;;4.23;1.40;;;22.70;31.10;;;;;;5007876;28;20289;-53
2021/04/08 09:01:22;;;;;;;4.93;1.93;;;22.60;30.90;;;;;;5001344;28;20209;-54
2021/04/08 09:03:48;;;;;;;3.67;1.50;;;22.60;31.10;;;;;;5008238;28;20245;-52
2021/04/08 09:06:14;;;;;;;3.57;1.70;;;22.60;30.70;;;;;;5001050;28;20309;-59
2021/04/08 09:08:44;;;;;;;3.73;1.70;;;22.60;30.60;;;;;;4989604;28;20207;-51
2021/04/08 09:11:13;;;;;;;3.20;1.50;;;22.70;31.10;;;;;;4989539;28;20660;-58
2021/04/08 09:13:39;;;;;;;4.53;1.93;;;22.70;31.30;;;;;;4989213;23;21186;-55
2021/04/08 09:16:05;;;;;;;3.67;1.80;;;22.80;31.10;;;;;;4986355;28;20231;-52
2021/04/08 09:18:31;;;;;;;3.03;1.53;;;22.80;31.20;;;;;;4988383;28;20451;-51
2021/04/08 09:20:57;;;;;;;3.63;1.77;;;22.80;31.30;;;;;;4985749;28;20230;-48
2021/04/08 09:23:23;;;;;;;2.27;1.73;;;22.80;30.80;;;;;;4988346;28;20233;-52
2021/04/08 09:25:49;;;;;;;2.47;1.50;;;22.80;30.60;;;;;;5005193;28;20195;-49
2021/04/08 09:28:15;;;;;;;2.40;1.73;;;22.80;30.30;;;;;;4996683;28;20214;-50
2021/04/08 09:30:43;;;;;;;2.77;1.50;;;22.80;29.90;;;;;;4987223;28;20668;-48
2021/04/08 09:33:09;;;;;;;4.07;1.80;;;22.80;29.80;;;;;;4988026;28;20268;-55
2021/04/08 09:35:35;;;;;;;2.13;1.53;;;22.80;30.90;;;;;;4988888;28;20230;-59
2021/04/08 09:38:01;;;;;;;2.90;1.90;;;22.80;30.70;;;;;;5005600;28;20211;-54
2021/04/08 09:40:30;;;;;;;3.83;1.83;;;22.80;29.90;;;;;;5003639;28;20218;-55
2021/04/08 09:42:56;;;;;;;2.90;1.77;;;22.80;29.80;;;;;;5005882;28;20206;-53
2021/04/08 09:45:22;;;;;;;3.23;1.60;;;22.80;29.70;;;;;;5002584;28;20257;-57
2021/04/08 09:47:48;;;;;;;3.30;1.40;;;22.80;29.60;;;;;;5003027;28;20218;-56
2021/04/08 09:50:14;;;;;;;1.80;1.40;;;22.80;29.60;;;;;;5004376;28;20558;-52
2021/04/08 09:52:40;;;;;;;2.27;1.63;;;22.90;30.30;;;;;;5003360;28;20207;-53
2021/04/08 09:55:06;;;;;;;3.50;1.60;;;22.90;30.40;;;;;;5001474;28;20249;-51
2021/04/08 09:57:32;;;;;;;3.03;1.80;;;22.90;30.20;;;;;;5002130;28;20210;-55
2021/04/08 09:59:58;;;;;;;4.07;1.83;;;22.80;30.30;;;;;;5002344;28;20250;-48
2021/04/08 10:02:24;;;;;;;2.60;1.43;;;22.90;30.40;;;;;;5003645;28;20728;-50
2021/04/08 10:04:50;;;;;;;2.87;1.60;;;22.80;30.10;;;;;;5006711;28;20220;-51
2021/04/08 10:07:16;;;;;;;2.73;1.60;;;22.90;30.50;;;;;;5006508;28;20264;-53
2021/04/08 10:09:42;;;;;;;3.27;1.97;;;22.80;30.10;;;;;;5007017;28;20566;-56
2021/04/08 10:12:08;;;;;;;2.47;1.43;;;22.90;30.20;;;;;;5004999;28;20222;-54
2021/04/08 10:14:34;;;;;;;3.70;1.60;;;22.90;30.20;;;;;;5009283;28;20250;-54
2021/04/08 10:16:59;;;;;;;5.10;1.80;;;22.80;30.40;;;;;;5005296;28;20636;-56
2021/04/08 10:19:25;;;;;;;3.37;1.70;;;22.80;30.20;;;;;;5009636;28;20238;-53
2021/04/08 10:21:51;;;;;;;3.77;2.33;;;22.80;30.20;;;;;;5012441;28;20198;-54
2021/04/08 10:24:17;;;;;;;2.83;1.60;;;22.80;30.20;;;;;;5010173;28;20694;-57
2021/04/08 10:26:43;;;;;;;4.13;1.60;;;22.80;30.20;;;;;;5010367;28;20547;-50
2021/04/08 10:29:10;;;;;;;3.17;1.67;;;22.80;30.00;;;;;;5010122;28;20248;-56
2021/04/08 10:31:36;;;;;;;3.00;1.60;;;22.80;30.00;;;;;;5011048;28;20205;-52
2021/04/08 10:34:02;;;;;;;2.83;1.73;;;22.80;30.00;;;;;;5011953;28;20245;-51
2021/04/08 10:36:28;;;;;;;3.73;1.93;;;22.90;30.20;;;;;;5003401;28;20659;-56
2021/04/08 10:38:53;;;;;;;2.10;1.50;;;22.90;30.40;;;;;;5007665;28;20199;-54
2021/04/08 10:41:19;;;;;;;2.90;1.40;;;22.90;30.40;;;;;;5009894;28;20206;-55
2021/04/08 10:43:45;;;;;;;2.60;1.90;;;22.90;30.10;;;;;;5008144;28;20322;-49
2021/04/08 10:46:11;;;;;;;3.33;1.50;;;22.90;29.60;;;;;;5005017;28;20213;-52
2021/04/08 10:48:37;;;;;;;2.43;2.00;;;22.80;29.10;;;;;;5009436;28;20218;-50
2021/04/08 10:51:03;;;;;;;2.90;1.97;;;22.80;28.50;;;;;;5010563;28;20203;-47
2021/04/08 10:53:29;;;;;;;3.87;1.83;;;22.70;27.80;;;;;;5011187;28;20222;-46
2021/04/08 10:55:55;;;;;;;4.43;2.03;;;22.70;27.90;;;;;;5007757;28;21018;-47
2021/04/08 10:58:21;;;;;;;4.30;1.93;;;22.70;27.80;;;;;;5011633;28;20207;-47
2021/04/08 11:00:47;;;;;;;3.20;1.83;;;22.70;27.80;;;;;;5009836;28;20276;-50
2021/04/08 11:03:13;;;;;;;3.90;2.30;;;22.60;27.60;;;;;;5010052;28;20221;-55
2021/04/08 11:05:39;;;;;;;3.20;1.63;;;22.60;27.20;;;;;;5010115;28;20218;-55
2021/04/08 11:08:05;;;;;;;3.10;1.60;;;22.60;26.90;;;;;;5011642;28;20229;-54
2021/04/08 11:10:31;;;;;;;3.20;1.90;;;22.50;27.00;;;;;;5007832;28;20215;-50
2021/04/08 11:12:57;;;;;;;4.07;2.17;;;22.60;26.70;;;;;;5011019;28;20225;-55
2021/04/08 11:15:23;;;;;;;3.30;2.43;;;22.60;26.70;;;;;;5006333;28;20628;-55
2021/04/08 11:17:49;;;;;;;4.87;2.00;;;22.60;27.40;;;;;;5009728;28;20210;-56
2021/04/08 11:20:15;;;;;;;4.17;1.70;;;22.80;27.90;;;;;;5011139;28;20214;-50
2021/04/08 11:22:41;;;;;;;6.17;2.63;;;22.80;28.30;;;;;;5010822;28;20222;-48
2021/04/08 11:25:07;;;;;;;3.87;2.17;;;22.80;28.30;;;;;;5009473;28;20226;-52
2021/04/08 11:27:34;;;;;;;4.93;2.10;;;22.90;28.90;;;;;;5009069;28;20195;-53
2021/04/08 11:30:00;;;;;;;5.53;2.57;;;22.90;29.20;;;;;;5009327;28;20221;-54
2021/04/08 11:32:26;;;;;;;6.07;2.20;;;22.90;29.50;;;;;;5002673;28;20211;-52
2021/04/08 11:34:52;;;;;;;6.10;2.40;;;22.90;29.90;;;;;;5007858;28;20317;-53
2021/04/08 11:37:18;;;;;;;8.17;2.40;;;23.00;30.20;;;;;;5011592;28;20667;-54
2021/04/08 11:39:44;;;;;;;6.37;2.07;;;23.00;30.60;;;;;;5007916;28;20606;-52
2021/04/08 11:42:10;;;;;;;7.03;2.47;;;23.00;30.30;;;;;;5009629;28;20211;-56
2021/04/08 11:44:36;;;;;;;5.83;2.30;;;23.00;30.20;;;;;;5007329;28;20222;-52
2021/04/08 11:47:02;;;;;;;6.33;2.57;;;23.00;30.20;;;;;;5008922;28;20207;-52
2021/04/08 11:49:27;;;;;;;3.57;2.00;;;23.00;30.70;;;;;;5010955;28;20282;-53
2021/04/08 11:51:53;;;;;;;4.60;1.98;;;23.00;30.80;;;;;;5009981;28;20593;-51
2021/04/08 11:54:20;;;;;;;6.37;2.30;;;23.00;30.60;;;;;;5009480;28;20597;-54
2021/04/08 11:56:46;;;;;;;4.18;2.15;;;23.00;30.60;;;;;;5009191;28;20211;-53
2021/04/08 11:59:12;;;;;;;3.33;2.10;;;22.90;30.90;;;;;;5010272;28;20301;-53
2021/04/08 12:01:38;;;;;;;5.40;1.90;;;22.90;30.90;;;;;;5007095;28;20210;-50
2021/04/08 12:04:04;;;;;;;6.47;2.00;;;22.90;30.90;;;;;;5010506;28;20768;-51
2021/04/08 12:06:30;;;;;;;5.80;2.10;;;22.90;31.00;;;;;;5008176;28;20216;-49
2021/04/08 12:08:56;;;;;;;3.23;2.10;;;22.90;31.00;;;;;;5009975;28;20195;-56
2021/04/08 12:11:22;;;;;;;3.63;1.57;;;22.90;31.20;;;;;;5002706;28;20208;-52
2021/04/08 12:13:48;;;;;;;6.13;2.00;;;22.90;31.20;;;;;;5009593;28;20236;-53
2021/04/08 12:16:14;;;;;;;5.05;2.22;;;22.90;31.50;;;;;;5009746;28;20207;-50
2021/04/08 12:18:40;;;;;;;3.83;1.60;;;22.80;31.30;;;;;;5010094;28;20363;-53
2021/04/08 12:21:06;;;;;;;6.38;2.08;;;22.80;31.10;;;;;;5009604;28;20224;-49
2021/04/08 12:23:32;;;;;;;4.43;2.30;;;22.80;31.20;;;;;;5010840;28;20616;-56
2021/04/08 12:25:58;;;;;;;4.37;1.90;;;22.80;29.50;;;;;;5009762;28;20207;-53
2021/04/08 12:28:24;;;;;;;3.17;2.20;;;22.50;27.40;;;;;;5010818;28;20210;-49
2021/04/08 12:31:02;;;;;;;4.90;1.87;;;22.50;26.70;;;;;;5010097;28;20210;-53
2021/04/08 12:33:28;;;;;;;3.77;2.00;;;22.60;27.70;;;;;;5019965;28;20273;-51
2021/04/08 12:35:54;;;;;;;2.50;1.77;;;22.70;27.80;;;;;;5008944;28;20227;-53
2021/04/08 12:38:20;;;;;;;2.63;1.50;;;22.80;27.90;;;;;;5009714;28;20205;-54
2021/04/08 12:40:46;;;;;;;6.07;2.80;;;22.80;28.40;;;;;;5006307;28;20210;-56